Time;durP1;ratioP1;P1;durP2;ratioP2;P2;SDS_P1;SDS_P2;PMS_P1;PMS_P2;Temp;Humidity;BMP_temperature;BMP_pressure;BME280_temperature;BME280_humidity;BME280_pressure;Samples;Min_cycle;Max_cycle;Signal;HPM_P1;HPM_P2
2022/06/15 00:01:52;;;;;;;5.40;2.07;;;;;;;14.83;69.28;101936.66;5055551;28;20029;-35
2022/06/15 00:04:17;;;;;;;5.00;1.97;;;;;;;14.83;69.17;101941.28;5055204;28;20276;-36
2022/06/15 00:06:43;;;;;;;;;;;;;;;14.98;66.68;101944.38;5055303;28;20362;-36
2022/06/15 00:09:09;;;;;;;4.97;2.40;;;;;;;14.78;69.24;101935.69;5054887;28;19931;-35
2022/06/15 00:11:39;;;;;;;3.63;2.30;;;;;;;14.61;70.07;101940.97;5055440;28;20298;-36
2022/06/15 00:14:11;;;;;;;4.28;2.10;;;;;;;14.63;70.15;101939.69;5054879;28;20056;-35
2022/06/15 00:16:36;;;;;;;4.05;2.15;;;;;;;14.53;70.69;101935.84;5054749;28;20043;-36
2022/06/15 00:19:04;;;;;;;;;;;;;;;14.77;67.69;101932.16;5055286;28;20033;-36
2022/06/15 00:21:30;;;;;;;4.50;2.08;;;;;;;14.51;70.43;101927.94;5054799;28;19920;-36
2022/06/15 00:23:57;;;;;;;4.97;2.22;;;;;;;14.31;70.88;101911.84;5054433;28;20123;-35
2022/06/15 00:26:23;;;;;;;7.03;3.00;;;;;;;14.41;71.10;101933.06;5054409;28;20477;-35
2022/06/15 00:28:48;;;;;;;;;;;;;;;14.63;68.14;101928.78;5054830;28;20049;-35
2022/06/15 00:31:13;;;;;;;4.93;2.33;;;;;;;14.53;70.79;101931.25;5054763;28;19909;-36
2022/06/15 00:33:39;;;;;;;4.90;2.38;;;;;;;14.30;71.38;101920.22;5054411;28;20064;-35
2022/06/15 00:36:08;;;;;;;3.93;2.20;;;;;;;14.31;71.19;101916.47;5069783;28;20033;-35
2022/06/15 00:38:47;;;;;;;4.32;2.47;;;;;;;14.30;71.63;101925.66;5054027;28;20032;-36
2022/06/15 00:41:16;;;;;;;8.20;2.83;;;;;;;14.22;71.88;101926.81;5054242;28;20332;-36
2022/06/15 00:43:48;;;;;;;7.13;2.30;;;;;;;14.24;71.94;101921.13;5054099;28;20025;-36
2022/06/15 00:46:17;;;;;;;4.03;2.00;;;;;;;14.26;71.84;101925.31;5054287;28;20025;-36
2022/06/15 00:48:44;;;;;;;4.10;2.10;;;;;;;14.08;72.13;101922.59;5054133;28;20028;-35
2022/06/15 00:51:10;;;;;;;4.35;2.17;;;;;;;14.09;71.24;101918.81;5053519;28;20040;-35
2022/06/15 00:53:37;;;;;;;;;;;;;;;14.32;69.22;101918.94;5053910;28;20025;-36
2022/06/15 00:56:03;;;;;;;4.95;1.80;;;;;;;14.08;72.05;101915.28;5054213;28;19909;-35
2022/06/15 00:58:30;;;;;;;4.68;1.90;;;;;;;13.95;72.76;101923.56;5054389;28;20040;-35
2022/06/15 01:00:56;;;;;;;6.78;2.50;;;;;;;14.09;72.13;101918.81;5053437;28;20082;-35
2022/06/15 01:03:22;;;;;;;7.03;2.45;;;;;;;13.93;72.73;101917.56;5054713;28;20044;-35
2022/06/15 01:05:57;;;;;;;4.43;2.00;;;;;;;14.04;72.49;101916.78;5054076;28;20033;-35
2022/06/15 01:08:37;;;;;;;3.85;2.05;;;;;;;13.96;72.24;101911.66;5053038;28;20396;-35
2022/06/15 01:11:33;;;;;;;4.93;2.10;;;;;;;14.01;72.13;101911.00;5053259;28;20358;-36
2022/06/15 01:14:04;;;;;;;4.15;2.08;;;;;;;13.95;73.25;101911.88;5053491;28;20029;-35
2022/06/15 01:16:44;;;;;;;3.78;1.85;;;;;;;13.85;72.61;101913.22;5053664;28;20033;-35
2022/06/15 01:19:44;;;;;;;3.65;2.20;;;;;;;13.87;72.43;101907.59;5053621;28;20052;-35
2022/06/15 01:22:34;;;;;;;4.97;2.17;;;;;;;13.80;73.25;101904.09;5053121;28;20025;-35
2022/06/15 01:25:37;;;;;;;2.88;1.80;;;;;;;13.95;72.11;101909.16;5053463;28;20033;-35
2022/06/15 01:28:08;;;;;;;3.55;2.30;;;;;;;13.89;72.67;101903.56;5053749;28;20029;-35
2022/06/15 01:30:50;;;;;;;3.22;2.10;;;;;;;13.81;73.39;101911.19;5053458;28;20381;-35
2022/06/15 01:33:27;;;;;;;5.43;1.80;;;;;;;13.80;73.61;101904.09;5053611;28;20365;-35
2022/06/15 01:36:11;;;;;;;;;;;;;;;13.96;71.11;101908.09;5054104;28;20029;-35
2022/06/15 01:38:39;;;;;;;3.70;2.00;;;;;;;13.70;73.39;101903.81;5053072;28;20369;-35
2022/06/15 01:41:19;;;;;;;5.70;2.10;;;;;;;13.70;74.02;101903.81;5053571;28;20033;-35
2022/06/15 01:43:54;;;;;;;4.95;2.40;;;;;;;13.70;73.17;101907.34;5053132;28;20033;-35
2022/06/15 01:46:21;;;;;;;3.90;1.92;;;;;;;13.67;74.42;101898.84;5053526;28;20418;-35
2022/06/15 01:48:49;;;;;;;4.57;2.10;;;;;;;13.65;74.19;101908.03;5052985;28;20373;-35
2022/06/15 01:51:20;;;;;;;3.75;1.90;;;;;;;13.51;74.39;101889.38;5053005;28;20029;-35
2022/06/15 01:53:53;;;;;;;4.05;2.10;;;;;;;13.57;74.99;101905.63;5053211;28;20033;-35
2022/06/15 01:56:24;;;;;;;5.05;2.00;;;;;;;13.52;74.45;101891.88;5052675;28;20148;-35
2022/06/15 01:59:05;;;;;;;5.28;2.40;;;;;;;13.47;74.90;101897.16;5052868;28;20063;-35
2022/06/15 02:01:43;;;;;;;6.03;2.30;;;;;;;13.47;74.90;101894.44;5052604;28;20036;-35
2022/06/15 02:04:20;;;;;;;4.15;2.00;;;;;;;13.46;75.23;101895.47;5052856;28;20059;-35
2022/06/15 02:07:14;;;;;;;5.75;2.20;;;;;;;13.33;75.42;101888.31;5053001;28;20450;-35
2022/06/15 02:10:06;;;;;;;4.13;2.08;;;;;;;13.38;75.34;101879.47;5052497;28;20469;-35
2022/06/15 02:12:39;;;;;;;5.53;2.17;;;;;;;13.39;75.43;101883.84;5052992;28;20078;-35
2022/06/15 02:15:08;;;;;;;5.85;2.53;;;;;;;13.34;75.92;101884.53;5052985;28;20025;-35
2022/06/15 02:17:39;;;;;;;3.85;2.15;;;;;;;13.37;75.63;101880.50;5052826;28;20029;-35
2022/06/15 02:20:11;;;;;;;4.13;2.25;;;;;;;13.28;76.03;101880.00;5052746;28;20028;-35
2022/06/15 02:22:39;;;;;;;4.68;2.05;;;;;;;13.26;76.54;101873.94;5055740;28;20078;-35
2022/06/15 02:25:09;;;;;;;5.97;2.00;;;;;;;13.27;76.51;101877.47;5056670;28;20033;-35
2022/06/15 02:27:38;;;;;;;5.45;2.13;;;;;;;13.30;76.51;101874.31;5056417;28;20033;-35
2022/06/15 02:30:10;;;;;;;5.22;2.25;;;;;;;13.24;76.46;101873.34;5056524;28;20025;-35
2022/06/15 02:32:36;;;;;;;4.20;2.10;;;;;;;13.18;76.25;101863.34;5056568;28;20036;-35
2022/06/15 02:35:03;;;;;;;4.65;2.08;;;;;;;13.08;77.14;101858.44;5056479;28;20074;-35
2022/06/15 02:37:28;;;;;;;5.53;2.50;;;;;;;13.03;77.08;101850.13;5056430;28;20025;-35
2022/06/15 02:39:54;;;;;;;5.03;2.03;;;;;;;13.21;76.68;101870.19;5056526;28;20035;-35
2022/06/15 02:42:24;;;;;;;6.30;2.10;;;;;;;13.22;76.67;101867.28;5056430;28;20272;-35
2022/06/15 02:44:52;;;;;;;4.43;2.25;;;;;;;13.10;76.51;101866.34;5056298;28;20403;-35
2022/06/15 02:47:19;;;;;;;7.30;2.78;;;;;;;13.07;77.37;101874.91;5056782;28;20025;-35
2022/06/15 02:49:48;;;;;;;7.10;2.53;;;;;;;13.09;77.23;101865.50;5056157;28;20124;-35
2022/06/15 02:52:14;;;;;;;5.68;2.85;;;;;;;13.01;77.81;101870.38;5056952;28;20047;-35
2022/06/15 02:54:46;;;;;;;4.85;2.50;;;;;;;12.98;77.67;101874.38;5055859;28;20090;-35
2022/06/15 02:57:12;;;;;;;6.00;2.22;;;;;;;12.96;77.99;101860.19;5056465;28;20049;-36
2022/06/15 02:59:38;;;;;;;;;;;;;;;13.18;75.45;101862.53;5056496;28;20124;-36
2022/06/15 03:02:04;;;;;;;9.95;2.50;;;;;;;12.88;77.52;101846.88;5056215;28;20003;-35
2022/06/15 03:04:29;;;;;;;4.13;1.85;;;;;;;13.02;77.52;101864.72;5056231;28;20028;-35
2022/06/15 03:06:55;;;;;;;4.00;2.10;;;;;;;12.88;78.20;101866.75;5056498;28;20029;-35
2022/06/15 03:09:21;;;;;;;5.95;2.90;;;;;;;12.89;78.35;101859.44;5055578;28;20025;-35
2022/06/15 03:11:46;;;;;;;4.93;2.40;;;;;;;12.96;78.11;101862.06;5055979;28;20025;-35
2022/06/15 03:14:14;;;;;;;3.55;1.83;;;;;;;12.78;78.31;101847.38;5056303;28;20112;-35
2022/06/15 03:16:43;;;;;;;5.97;2.40;;;;;;;12.88;78.57;101869.47;5055317;28;20060;-35
2022/06/15 03:19:09;;;;;;;3.72;2.13;;;;;;;12.79;78.99;101857.22;5055641;28;20037;-35
2022/06/15 03:21:34;;;;;;;;;;;;;;;13.02;76.13;101863.91;5056070;28;20056;-35
2022/06/15 03:23:59;;;;;;;5.38;2.40;;;;;;;12.94;77.95;101864.19;5055169;28;20316;-35
2022/06/15 03:26:25;;;;;;;3.67;2.23;;;;;;;12.85;78.28;101852.78;5055623;28;20089;-35
2022/06/15 03:28:50;;;;;;;4.00;2.07;;;;;;;12.87;78.42;101869.66;5055523;28;20162;-35
2022/06/15 03:31:15;;;;;;;6.77;2.53;;;;;;;12.71;78.45;101841.19;5056075;28;20294;-35
2022/06/15 03:33:41;;;;;;;5.43;2.30;;;;;;;12.65;78.50;101850.22;5055030;28;20078;-35
2022/06/15 03:36:07;;;;;;;5.07;2.40;;;;;;;12.80;78.69;101867.00;5055722;28;20616;-35
2022/06/15 03:38:32;;;;;;;7.53;2.78;;;;;;;12.74;78.92;101864.34;5055153;28;20095;-35
2022/06/15 03:40:57;;;;;;;7.50;2.35;;;;;;;12.61;79.49;101871.53;5055803;28;20063;-35
2022/06/15 03:43:23;;;;;;;3.95;2.40;;;;;;;12.55;79.49;101858.84;5055234;28;20029;-35
2022/06/15 03:45:48;;;;;;;4.97;2.88;;;;;;;12.63;79.54;101872.13;5055221;28;20033;-35
2022/06/15 03:48:14;;;;;;;4.57;2.33;;;;;;;12.59;79.02;101865.50;5054765;28;20074;-35
2022/06/15 03:50:40;;;;;;;5.30;2.15;;;;;;;12.65;79.47;101873.81;5055457;28;20032;-35
2022/06/15 03:53:06;;;;;;;7.57;3.00;;;;;;;12.63;79.60;101877.56;5055304;28;20056;-35
2022/06/15 03:55:32;;;;;;;;;;;;;;;12.79;77.58;101876.22;5055457;28;20064;-35
2022/06/15 03:57:58;;;;;;;6.30;2.80;;;;;;;12.67;79.56;101877.97;5053315;28;19963;-36
2022/06/15 04:00:25;;;;;;;10.45;3.08;;;;;;;12.65;79.74;101868.38;5054885;28;20466;-36
2022/06/15 04:02:52;;;;;;;4.70;2.40;;;;;;;12.70;79.69;101873.97;5055355;28;20386;-35
2022/06/15 04:05:27;;;;;;;7.35;2.88;;;;;;;12.62;80.18;101872.34;5054817;28;20025;-36
2022/06/15 04:10:37;;;;;;;6.40;2.60;;;;;;;12.66;80.06;101881.72;5054993;28;20036;-35
2022/06/15 04:13:03;;;;;;;5.35;2.60;;;;;;;12.66;79.94;101870.03;5054487;28;20029;-35
2022/06/15 04:15:28;;;;;;;;;;;;;;;12.86;77.91;101882.41;5055038;28;20025;-35
2022/06/15 04:17:54;;;;;;;5.50;2.40;;;;;;;12.78;79.59;101884.56;5055244;28;20007;-35
2022/06/15 04:20:36;;;;;;;6.13;2.60;;;;;;;12.69;79.97;101867.72;5054299;28;20284;-35
2022/06/15 04:23:05;;;;;;;6.55;2.92;;;;;;;12.74;79.57;101867.06;5055040;28;20346;-35
2022/06/15 04:25:34;;;;;;;4.05;2.88;;;;;;;12.84;79.73;101880.97;5054442;28;20025;-35
2022/06/15 04:27:59;;;;;;;5.55;3.63;;;;;;;12.82;79.74;101880.34;5054551;28;20037;-35
2022/06/15 04:30:25;;;;;;;6.63;2.80;;;;;;;12.82;79.47;101878.47;5054289;28;20091;-35
2022/06/15 04:32:51;;;;;;;8.18;3.28;;;;;;;12.88;79.67;101879.47;5053210;28;20136;-35
2022/06/15 04:35:17;;;;;;;5.45;3.50;;;;;;;12.87;79.09;101869.66;5054366;28;20053;-35
2022/06/15 04:37:42;;;;;;;6.03;2.80;;;;;;;12.89;79.31;101873.84;5053842;28;20083;-35
2022/06/15 04:40:09;;;;;;;8.82;3.40;;;;;;;12.89;79.44;101870.28;5054106;28;20037;-35
2022/06/15 04:42:37;;;;;;;7.38;3.70;;;;;;;12.96;79.71;101871.06;5054208;28;20050;-35
2022/06/15 04:45:03;;;;;;;7.28;3.20;;;;;;;13.04;79.29;101873.50;5054149;28;20021;-35
2022/06/15 04:47:29;;;;;;;;;;;;;;;13.17;78.46;101874.41;5054276;28;20032;-35
2022/06/15 04:49:54;;;;;;;7.22;3.42;;;;;;;13.13;78.75;101876.75;5054618;28;19912;-35
2022/06/15 04:52:19;;;;;;;7.30;3.10;;;;;;;13.03;78.42;101850.13;5053950;28;20029;-35
2022/06/15 04:54:45;;;;;;;5.00;2.88;;;;;;;13.22;77.86;101874.59;5053937;28;20596;-35
2022/06/15 04:57:10;;;;;;;8.67;3.43;;;;;;;13.34;78.04;101878.25;5054627;28;20140;-35
2022/06/15 04:59:35;;;;;;;6.63;3.20;;;;;;;13.29;78.12;101872.69;5054317;28;20336;-35
2022/06/15 05:02:01;;;;;;;9.20;3.40;;;;;;;13.54;78.48;101878.88;5053831;28;20021;-35
2022/06/15 05:04:27;;;;;;;9.17;3.17;;;;;;;13.59;77.65;101884.47;5053750;28;20028;-35
2022/06/15 05:06:53;;;;;;;6.60;3.03;;;;;;;13.69;77.44;101880.41;5054399;28;20271;-35
2022/06/15 05:09:18;;;;;;;5.38;3.08;;;;;;;13.76;77.51;101875.72;5053341;28;20029;-35
2022/06/15 05:11:44;;;;;;;5.43;3.03;;;;;;;13.84;77.06;101873.50;5053954;28;20029;-35
2022/06/15 05:14:10;;;;;;;7.90;3.42;;;;;;;13.78;76.69;101869.00;5053604;28;20394;-35
2022/06/15 05:16:35;;;;;;;5.90;2.90;;;;;;;13.87;76.26;101877.69;5054219;28;20040;-35
2022/06/15 05:19:01;;;;;;;5.68;3.47;;;;;;;14.05;76.79;101874.91;5052294;28;20044;-35
2022/06/15 05:21:27;;;;;;;6.60;3.20;;;;;;;14.08;75.49;101874.47;5053645;28;20056;-35
2022/06/15 05:23:53;;;;;;;5.72;3.00;;;;;;;14.09;75.99;101867.16;5053609;28;20100;-35
2022/06/15 05:26:18;;;;;;;6.88;3.15;;;;;;;14.10;74.34;101872.38;5053467;28;20033;-35
2022/06/15 05:28:45;;;;;;;;;;;;;;;14.37;74.84;101882.88;5054445;28;20438;-35
2022/06/15 05:31:18;;;;;;;5.63;3.05;;;;;;;14.39;75.63;101886.19;5053494;28;20376;-35
2022/06/15 05:33:44;;;;;;;5.80;3.00;;;;;;;14.55;76.38;101873.88;5053362;28;20461;-35
2022/06/15 05:36:13;;;;;;;5.28;3.10;;;;;;;14.71;76.16;101875.91;5053404;28;20025;-35
2022/06/15 05:38:39;;;;;;;7.50;3.13;;;;;;;14.83;73.66;101881.38;5052717;28;20032;-35
2022/06/15 05:41:05;;;;;;;9.77;3.40;;;;;;;14.91;75.33;101887.31;5053275;28;20086;-35
2022/06/15 05:43:33;;;;;;;;;;;;;;;15.15;74.70;101877.28;5053391;28;20416;-36
2022/06/15 05:45:58;;;;;;;7.28;3.08;;;;;;;15.10;73.69;101879.88;5053486;28;19962;-35
2022/06/15 05:48:23;;;;;;;;;;;;;;;15.27;73.37;101880.00;5053379;28;20410;-35
2022/06/15 05:50:49;;;;;;;5.60;3.10;;;;;;;15.19;74.61;101874.91;5053191;28;20011;-35
2022/06/15 05:53:14;;;;;;;6.53;3.30;;;;;;;15.18;74.46;101868.63;5052668;28;20849;-35
2022/06/15 05:55:40;;;;;;;9.63;3.60;;;;;;;15.28;73.33;101889.84;5052824;28;20720;-35
2022/06/15 05:58:05;;;;;;;;;;;;;;;15.45;73.12;101882.59;5053327;28;20041;-35
2022/06/15 06:00:31;;;;;;;7.32;3.30;;;;;;;15.51;73.58;101882.69;5052788;28;19948;-36
2022/06/15 06:02:56;;;;;;;;;;;;;;;15.66;72.80;101880.34;5053338;28;20037;-35
2022/06/15 06:05:23;;;;;;;5.78;3.13;;;;;;;15.60;71.76;101881.28;5053088;28;19913;-36
2022/06/15 06:07:48;;;;;;;8.10;3.20;;;;;;;15.60;72.22;101881.28;5053476;28;20040;-35
2022/06/15 06:10:13;;;;;;;;;;;;;;;15.70;71.11;101882.34;5053196;28;20029;-36
2022/06/15 06:12:39;;;;;;;6.77;3.83;;;;;;;15.52;71.49;101868.00;5052946;28;19966;-35
2022/06/15 06:15:05;;;;;;;6.20;3.22;;;;;;;15.58;71.81;101877.97;5052922;28;20272;-35
2022/06/15 06:17:30;;;;;;;6.78;3.47;;;;;;;15.71;70.70;101877.72;5052877;28;20025;-35
2022/06/15 06:19:56;;;;;;;;;;;;;;;15.89;71.77;101883.03;5053044;28;20036;-35
2022/06/15 06:22:21;;;;;;;7.60;3.53;;;;;;;15.80;70.84;101853.63;5052908;28;20365;-35
2022/06/15 06:24:46;;;;;;;9.27;3.80;;;;;;;15.97;71.61;101881.84;5050798;28;20271;-35
2022/06/15 06:27:14;;;;;;;6.03;3.43;;;;;;;16.18;71.71;101872.97;5052394;28;20037;-35
2022/06/15 06:29:40;;;;;;;7.85;3.30;;;;;;;16.27;70.14;101867.13;5052551;28;20271;-36
2022/06/15 06:32:05;;;;;;;;;;;;;;;16.44;69.72;101885.19;5053210;28;20531;-35
2022/06/15 06:34:30;;;;;;;7.93;3.38;;;;;;;16.44;69.96;101882.44;5052155;28;19958;-35
2022/06/15 06:36:56;;;;;;;;;;;;;;;16.58;70.82;101884.88;5053085;28;20374;-35
2022/06/15 06:39:25;;;;;;;5.30;3.40;;;;;;;16.65;69.49;101880.94;5052144;28;20381;-35
2022/06/15 06:41:51;;;;;;;8.00;3.15;;;;;;;16.70;68.92;101881.03;5052360;28;20462;-36
2022/06/15 06:44:16;;;;;;;5.43;3.08;;;;;;;16.71;67.11;101876.38;5052853;28;20365;-36
2022/06/15 06:46:45;;;;;;;5.63;2.92;;;;;;;16.87;68.32;101885.69;5052679;28;20029;-36
2022/06/15 06:49:11;;;;;;;4.65;3.15;;;;;;;16.94;68.26;101887.19;5052413;28;20086;-35
2022/06/15 06:51:39;;;;;;;9.95;3.67;;;;;;;17.03;67.65;101887.63;5052270;28;20088;-36
2022/06/15 06:54:06;;;;;;;5.88;3.00;;;;;;;17.11;67.91;101887.19;5052682;28;20113;-35
2022/06/15 06:56:34;;;;;;;4.78;2.83;;;;;;;17.14;67.16;101881.22;5052702;28;20079;-36
2022/06/15 06:58:59;;;;;;;4.95;2.80;;;;;;;17.24;67.57;101892.31;5052022;28;20385;-36
2022/06/15 07:01:25;;;;;;;;;;;;;;;17.40;67.60;101889.81;5052823;28;20032;-36
2022/06/15 07:03:50;;;;;;;7.30;3.10;;;;;;;17.33;65.83;101890.00;5052253;28;20023;-36
2022/06/15 07:06:15;;;;;;;;;;;;;;;17.51;65.06;101886.13;5052758;28;20159;-36
2022/06/15 07:08:40;;;;;;;6.67;3.47;;;;;;;17.57;66.82;101881.56;5052742;28;19919;-36
2022/06/15 07:11:10;;;;;;;;;;;;;;;17.69;66.72;101882.28;5055978;28;20260;-36
2022/06/15 07:13:36;;;;;;;4.05;2.35;;;;;;;17.72;64.87;101884.53;5055731;28;19923;-35
2022/06/15 07:16:10;;;;;;;;;;;;;;;17.84;64.68;101889.91;5056959;28;20033;-36
2022/06/15 07:18:36;;;;;;;8.15;2.78;;;;;;;17.79;63.42;101896.13;5055582;28;19912;-36
2022/06/15 07:21:11;;;;;;;;;;;;;;;17.86;64.40;101894.03;5055873;28;20032;-36
2022/06/15 07:23:37;;;;;;;5.82;2.70;;;;;;;17.92;64.05;101900.41;5055879;28;19909;-35
2022/06/15 07:26:03;;;;;;;;;;;;;;;17.94;62.79;101906.44;5056327;28;20029;-35
2022/06/15 07:28:29;;;;;;;7.25;3.00;;;;;;;17.92;62.21;101901.22;5055860;28;20238;-36
2022/06/15 07:30:54;;;;;;;;;;;;;;;18.07;62.72;101897.03;5056183;28;20028;-36
2022/06/15 07:33:20;;;;;;;6.47;2.75;;;;;;;18.06;62.79;101896.22;5055395;28;19908;-36
2022/06/15 07:35:46;;;;;;;5.78;2.67;;;;;;;18.18;63.17;101898.78;5055369;28;20063;-35
2022/06/15 07:38:11;;;;;;;;;;;;;;;18.27;61.51;101895.34;5055734;28;20104;-35
2022/06/15 07:40:36;;;;;;;6.30;2.60;;;;;;;18.30;59.83;101898.63;5055459;28;19920;-36
2022/06/15 07:43:01;;;;;;;;;;;;;;;18.38;60.08;101898.19;5055618;28;20025;-36
2022/06/15 07:45:27;;;;;;;5.57;2.53;;;;;;;18.39;60.33;101891.63;5055994;28;19986;-36
2022/06/15 07:50:39;;;;;;;6.65;2.70;;;;;;;18.59;60.30;101899.22;5055640;28;19920;-36
2022/06/15 07:53:07;;;;;;;5.72;2.45;;;;;;;18.80;61.71;101897.53;5054942;28;20025;-36
2022/06/15 07:55:35;;;;;;;5.00;2.40;;;;;;;18.89;60.07;101891.31;5055046;28;20396;-35
2022/06/15 07:58:02;;;;;;;7.85;2.75;;;;;;;18.97;61.54;101887.25;5054697;28;20048;-35
2022/06/15 08:00:28;;;;;;;5.40;2.05;;;;;;;19.17;60.75;101892.06;5055174;28;20515;-35
2022/06/15 08:02:54;;;;;;;4.85;2.03;;;;;;;19.24;58.56;101896.25;5055618;28;20115;-36
2022/06/15 08:05:20;;;;;;;;;;;;;;;19.37;59.67;101899.59;5055287;28;20021;-36
2022/06/15 08:07:47;;;;;;;4.78;2.13;;;;;;;19.34;57.32;101897.41;5055323;28;20319;-36
2022/06/15 08:10:16;;;;;;;4.50;1.90;;;;;;;19.39;58.62;101900.19;5055141;28;20382;-36
2022/06/15 08:12:44;;;;;;;5.05;2.00;;;;;;;19.36;57.11;101898.78;5054597;28;20366;-36
2022/06/15 08:15:10;;;;;;;8.05;2.40;;;;;;;19.42;55.80;101888.66;5054363;28;20163;-36
2022/06/15 08:17:38;;;;;;;;;;;;;;;19.59;56.56;101889.34;5055316;28;20029;-36
2022/06/15 08:20:12;;;;;;;5.32;2.10;;;;;;;19.59;54.83;101900.31;5054204;28;19912;-36
2022/06/15 08:22:42;;;;;;;7.13;2.33;;;;;;;19.61;53.75;101889.91;5055268;28;20116;-36
2022/06/15 08:25:10;;;;;;;6.00;2.08;;;;;;;19.68;53.86;101893.25;5054230;28;20482;-36
2022/06/15 08:27:36;;;;;;;6.13;2.05;;;;;;;19.86;54.49;101900.19;5054992;28;20033;-36
2022/06/15 08:30:02;;;;;;;;;;;;;;;19.91;54.67;101893.88;5054837;28;20159;-36
2022/06/15 08:32:28;;;;;;;6.07;2.25;;;;;;;19.79;53.88;101886.72;5054693;28;20353;-36
2022/06/15 08:34:53;;;;;;;6.18;2.03;;;;;;;19.84;53.99;101887.84;5054293;28;20106;-36
2022/06/15 08:37:19;;;;;;;4.85;1.83;;;;;;;20.04;53.55;101890.66;5054518;28;20098;-36
2022/06/15 08:39:45;;;;;;;6.63;2.15;;;;;;;20.22;52.79;101886.59;5054536;28;20071;-36
2022/06/15 08:42:13;;;;;;;;;;;;;;;20.17;52.36;101887.41;5054375;28;20126;-36
2022/06/15 08:44:56;;;;;;;7.85;2.05;;;;;;;20.22;52.45;101886.59;5053989;28;19909;-36
2022/06/15 08:47:56;;;;;;;9.60;2.60;;;;;;;20.43;53.64;101887.47;5054689;28;20040;-36
2022/06/15 08:50:24;;;;;;;4.85;1.75;;;;;;;20.64;52.78;101889.16;5053738;28;20098;-36
2022/06/15 08:53:00;;;;;;;5.88;1.98;;;;;;;20.85;52.43;101889.22;5054174;28;20461;-36
2022/06/15 08:55:39;;;;;;;6.40;2.30;;;;;;;20.94;51.54;101887.56;5053652;28;20450;-36
2022/06/15 08:58:16;;;;;;;4.55;2.03;;;;;;;20.81;50.78;101894.41;5054697;28;20428;-36
2022/06/15 09:00:43;;;;;;;;;;;;;;;21.08;53.46;101883.13;5054541;28;20385;-36
2022/06/15 09:03:21;;;;;;;6.95;2.20;;;;;;;21.18;54.19;101887.78;5054086;28;19909;-36
2022/06/15 09:06:05;;;;;;;6.75;1.92;;;;;;;21.36;52.28;101883.69;5053916;28;20024;-36
2022/06/15 09:08:51;;;;;;;4.88;1.90;;;;;;;21.45;50.02;101887.50;5053710;28;20041;-36
2022/06/15 09:11:23;;;;;;;6.85;2.00;;;;;;;21.56;50.33;101884.44;5053893;28;20072;-36
2022/06/15 09:14:05;;;;;;;7.50;2.40;;;;;;;21.72;48.83;101881.66;5053220;28;20036;-36
2022/06/15 09:16:44;;;;;;;5.13;1.73;;;;;;;21.78;47.87;101881.34;5054086;28;20033;-36
2022/06/15 09:19:14;;;;;;;6.15;2.53;;;;;;;21.83;46.97;101875.81;5053741;28;20048;-36
2022/06/15 09:21:51;;;;;;;8.60;1.90;;;;;;;21.73;49.19;101864.84;5053161;28;20488;-36
2022/06/15 09:24:26;;;;;;;7.15;1.95;;;;;;;21.96;48.27;101868.03;5053867;28;20033;-36
2022/06/15 09:26:54;;;;;;;6.38;1.88;;;;;;;22.13;46.47;101876.81;5053663;28;20116;-36
2022/06/15 09:29:34;;;;;;;5.60;1.88;;;;;;;22.14;46.21;101875.72;5053271;28;20017;-36
2022/06/15 09:32:18;;;;;;;5.28;1.73;;;;;;;22.20;46.09;101877.31;5052653;28;20074;-36
2022/06/15 09:35:17;;;;;;;6.85;2.03;;;;;;;22.15;46.81;101879.28;5053395;28;20079;-36
2022/06/15 09:37:48;;;;;;;4.88;1.98;;;;;;;22.20;45.81;101873.75;5051112;28;20111;-36
2022/06/15 09:40:15;;;;;;;3.85;1.60;;;;;;;22.24;45.69;101877.56;5053086;28;20111;-36
2022/06/15 09:43:01;;;;;;;5.45;1.98;;;;;;;22.45;45.82;101870.00;5053141;28;20025;-35
2022/06/15 09:45:43;;;;;;;3.90;1.70;;;;;;;22.38;46.51;101875.84;5053300;28;20078;-36
2022/06/15 09:48:23;;;;;;;8.63;2.45;;;;;;;21.96;45.50;101874.41;5053710;28;20029;-36
2022/06/15 09:51:19;;;;;;;6.15;1.83;;;;;;;21.91;45.72;101865.31;5052755;28;20053;-36
2022/06/15 09:53:50;;;;;;;8.13;2.05;;;;;;;22.02;45.60;101864.19;5053505;28;20036;-36
2022/06/15 09:56:18;;;;;;;5.82;1.88;;;;;;;22.15;45.38;101871.84;5052978;28;20114;-36
2022/06/15 09:58:57;;;;;;;9.02;2.10;;;;;;;22.39;45.65;101862.88;5053379;28;20082;-36
2022/06/15 10:01:26;;;;;;;8.13;2.25;;;;;;;22.46;44.29;101871.66;5053094;28;20052;-36
2022/06/15 10:03:57;;;;;;;4.35;1.50;;;;;;;22.62;43.87;101862.16;5053553;28;20025;-36
2022/06/15 10:06:37;;;;;;;3.78;1.65;;;;;;;22.74;43.30;101865.41;5052838;28;20029;-36
2022/06/15 10:09:07;;;;;;;4.47;1.63;;;;;;;22.80;43.27;101867.00;5052890;28;20080;-36
2022/06/15 10:11:37;;;;;;;5.57;1.90;;;;;;;23.02;44.51;101863.78;5053110;28;20025;-36
2022/06/15 10:14:24;;;;;;;4.68;1.73;;;;;;;23.35;45.21;101855.72;5052737;28;20422;-36
2022/06/15 10:17:03;;;;;;;4.78;2.03;;;;;;;23.46;43.35;101864.72;5052654;28;20028;-36
2022/06/15 10:19:32;;;;;;;4.15;1.70;;;;;;;23.39;44.03;101856.78;5052682;28;20060;-36
2022/06/15 10:22:03;;;;;;;4.95;1.88;;;;;;;23.36;44.27;101863.72;5053033;28;20373;-36
2022/06/15 10:24:38;;;;;;;5.22;1.42;;;;;;;23.55;43.70;101857.44;5052667;28;20075;-36
2022/06/15 10:27:15;;;;;;;6.97;2.00;;;;;;;23.53;43.12;101860.50;5053454;28;20460;-36
2022/06/15 10:29:40;;;;;;;4.70;1.60;;;;;;;23.54;43.00;101855.81;5052666;28;20064;-36
2022/06/15 10:32:09;;;;;;;6.95;2.22;;;;;;;23.64;44.11;101850.19;5052630;28;20439;-36
2022/06/15 10:34:58;;;;;;;4.63;1.70;;;;;;;23.94;42.45;101848.16;5052378;28;20470;-36
2022/06/15 10:37:27;;;;;;;4.40;1.55;;;;;;;24.13;41.89;101857.28;5051960;28;20033;-36
2022/06/15 10:39:58;;;;;;;3.95;1.70;;;;;;;24.05;42.88;101844.13;5052795;28;20032;-36
2022/06/15 10:42:32;;;;;;;7.70;2.22;;;;;;;24.08;41.32;101854.59;5053705;28;20545;-36
2022/06/15 10:45:26;;;;;;;4.57;1.80;;;;;;;24.21;41.53;101848.31;5056669;28;20074;-36
2022/06/15 10:48:02;;;;;;;5.32;1.83;;;;;;;24.16;42.50;101840.13;5034508;28;20056;-36
2022/06/15 10:50:32;;;;;;;5.18;1.67;;;;;;;23.66;42.71;101841.59;5034240;28;20104;-35
2022/06/15 10:53:02;;;;;;;5.18;1.80;;;;;;;23.74;42.81;101847.28;5034423;28;20037;-36
2022/06/15 11:04:23;;;;;;;6.90;1.85;;;;;;;24.70;42.17;101837.91;5033998;28;20140;-36
2022/06/15 11:06:50;;;;;;;7.03;1.95;;;;;;;24.48;41.75;101838.53;5033678;28;20034;-36
2022/06/15 11:09:17;;;;;;;5.55;1.70;;;;;;;24.37;42.84;101835.94;5033513;28;20084;-36
2022/06/15 11:11:42;;;;;;;4.72;1.77;;;;;;;24.65;41.10;101836.88;5033688;28;20082;-36
2022/06/15 11:14:19;;;;;;;5.65;1.98;;;;;;;24.63;40.89;101835.53;5033386;28;20037;-36
2022/06/15 11:19:29;;;;;;;5.80;1.98;;;;;;;24.91;40.15;101834.47;5034253;28;20048;-36
2022/06/15 11:22:08;;;;;;;6.70;2.22;;;;;;;25.07;40.88;101823.97;5033740;28;20057;-36
2022/06/15 11:24:57;;;;;;;4.72;1.90;;;;;;;25.19;40.16;101833.75;5042810;28;20115;-37
2022/06/15 11:27:31;;;;;;;4.50;1.77;;;;;;;25.01;40.98;101835.44;5055558;28;20048;-36
2022/06/15 11:30:03;;;;;;;6.60;2.10;;;;;;;24.82;39.40;101833.53;5055540;28;20359;-36
2022/06/15 11:32:38;;;;;;;4.53;1.67;;;;;;;25.23;38.76;101834.75;5055355;28;20032;-36
2022/06/15 11:35:12;;;;;;;5.65;1.92;;;;;;;24.67;39.48;101842.91;5055697;28;20029;-36
2022/06/15 11:37:51;;;;;;;5.93;2.20;;;;;;;24.92;38.67;101832.53;5055998;28;20029;-36
2022/06/15 11:40:42;;;;;;;4.30;1.70;;;;;;;25.17;39.43;101818.25;5055949;28;20025;-36
2022/06/15 11:43:26;;;;;;;4.00;2.00;;;;;;;24.96;39.41;101816.97;5055420;28;20025;-36
2022/06/15 11:46:18;;;;;;;4.22;1.75;;;;;;;25.31;39.65;101834.06;5054696;28;20367;-36
2022/06/15 11:49:12;;;;;;;7.43;2.10;;;;;;;25.70;39.38;101828.00;5055426;28;20102;-36
2022/06/15 11:52:11;;;;;;;7.00;1.95;;;;;;;25.77;38.54;101825.66;5054960;28;20103;-36
2022/06/15 11:54:52;;;;;;;3.90;1.40;;;;;;;25.77;37.95;101811.81;5054970;28;20028;-36
2022/06/15 11:57:55;;;;;;;6.65;2.20;;;;;;;25.82;41.07;101831.09;5055534;28;20471;-37
2022/06/15 12:00:53;;;;;;;9.73;2.45;;;;;;;25.72;40.71;101834.06;5054822;28;20104;-36
2022/06/15 12:03:59;;;;;;;4.53;1.80;;;;;;;25.38;37.58;101818.69;5055473;28;20021;-36
2022/06/15 12:06:30;;;;;;;6.72;2.05;;;;;;;25.27;38.32;101819.19;5033207;28;20091;-36